createdAt,value
2022-12-10T00:00:12.970Z,159090.06
2022-12-10T00:03:17.477Z,159075.78
2022-12-10T00:06:24.438Z,159067.97
2022-12-10T00:09:28.361Z,159065.38
2022-12-10T00:12:32.281Z,159053.66
2022-12-10T00:15:36.413Z,159018.47
2022-12-10T00:18:40.916Z,159040.63
2022-12-10T00:21:45.584Z,159066.66
2022-12-10T00:24:49.456Z,159096.56
2022-12-10T00:27:53.391Z,159060.16
2022-12-10T00:31:02.064Z,159057.56
2022-12-10T00:34:09.024Z,159044.53
2022-12-10T00:37:12.998Z,159065.38
2022-12-10T00:40:17.419Z,159062.75
2022-12-10T00:43:21.751Z,159043.22
2022-12-10T00:46:25.593Z,159048.44
2022-12-10T00:49:29.911Z,159027.59
2022-12-10T00:52:34.175Z,159052.34
2022-12-10T00:55:38.277Z,159048.44
2022-12-10T00:58:43.070Z,159052.34
2022-12-10T01:01:47.445Z,159011.97
2022-12-10T01:04:55.092Z,158997.63
2022-12-10T01:07:59.251Z,159015.88
2022-12-10T01:11:03.475Z,159025.00
2022-12-10T01:14:09.960Z,159022.38
2022-12-10T01:17:14.221Z,159017.16
2022-12-10T01:20:18.263Z,158975.50
2022-12-10T01:23:22.445Z,158996.34
2022-12-10T01:26:29.603Z,159009.34
2022-12-10T01:29:33.608Z,159019.78
2022-12-10T01:32:37.654Z,159010.66
2022-12-10T01:35:41.946Z,159038.00
2022-12-10T01:38:46.952Z,159004.16
2022-12-10T01:41:54.276Z,158997.63
2022-12-10T01:45:01.575Z,159008.06
2022-12-10T01:48:08.225Z,159027.59
2022-12-10T01:51:14.580Z,159002.84
2022-12-10T01:54:28.482Z,158985.91
2022-12-10T01:57:32.338Z,159017.16
2022-12-10T02:00:42.536Z,159004.16
2022-12-10T02:04:22.688Z,159002.84
2022-12-10T02:07:50.092Z,159002.84
2022-12-10T02:11:46.271Z,158993.72
2022-12-10T02:14:58.981Z,159000.25
2022-12-10T02:18:12.582Z,158992.41
2022-12-10T02:21:20.795Z,159008.06
2022-12-10T02:24:30.249Z,158997.63
2022-12-10T02:27:56.981Z,159010.66
2022-12-10T02:31:01.616Z,158991.13
2022-12-10T02:34:09.199Z,159002.84
2022-12-10T02:37:23.355Z,158992.41
2022-12-10T02:40:32.942Z,158995.03
2022-12-10T02:43:37.499Z,158989.81
2022-12-10T02:46:43.360Z,158975.50
2022-12-10T02:49:50.746Z,158983.31
2022-12-10T02:52:54.796Z,158996.34
2022-12-10T02:56:11.264Z,158995.03
2022-12-10T02:59:34.655Z,159004.16
2022-12-10T03:03:09.846Z,159019.78
2022-12-10T03:06:24.704Z,159009.34
2022-12-10T03:09:38.677Z,159013.25
2022-12-10T03:12:48.821Z,159008.06
2022-12-10T03:15:54.977Z,159011.97
2022-12-10T03:19:02.647Z,159004.16
2022-12-10T03:22:09.341Z,158985.91
2022-12-10T03:25:18.833Z,158983.31
2022-12-10T03:28:24.221Z,158992.41
2022-12-10T03:31:29.740Z,158974.19
2022-12-10T03:34:34.585Z,158955.94
2022-12-10T03:37:38.911Z,158979.41
2022-12-10T03:40:43.154Z,158976.78
2022-12-10T03:43:58.396Z,158971.56
2022-12-10T03:47:04.972Z,158970.28
2022-12-10T03:50:10.771Z,158996.34
2022-12-10T03:53:14.683Z,158955.94
2022-12-10T03:56:20.281Z,158955.94
2022-12-10T03:59:24.457Z,158927.34
2022-12-10T04:02:28.326Z,158932.56
2022-12-10T04:05:32.351Z,158926.06
2022-12-10T04:08:36.455Z,158919.53
2022-12-10T04:11:40.948Z,158909.13
2022-12-10T04:15:03.466Z,158924.75
2022-12-10T04:18:07.717Z,158922.13
2022-12-10T04:21:30.403Z,158913.03
2022-12-10T04:24:55.433Z,158911.72
2022-12-10T04:27:59.473Z,158923.44
2022-12-10T04:31:03.439Z,158940.38
2022-12-10T04:34:07.100Z,158933.88
2022-12-10T04:37:14.534Z,158942.97
2022-12-10T04:40:18.621Z,158937.78
2022-12-10T04:43:22.603Z,158937.78
2022-12-10T04:46:26.914Z,158944.28
2022-12-10T04:49:31.215Z,158946.84
2022-12-10T04:52:35.368Z,158949.50
2022-12-10T04:55:39.460Z,158933.88
2022-12-10T04:58:43.137Z,158932.56
2022-12-10T05:01:47.516Z,158935.16
2022-12-10T05:04:51.989Z,158916.94
2022-12-10T05:07:56.313Z,158922.13
2022-12-10T05:11:05.897Z,158929.97
2022-12-10T05:14:12.343Z,158915.63
2022-12-10T05:17:16.386Z,158909.13
2022-12-10T05:20:20.303Z,158916.94
2022-12-10T05:23:30.382Z,158932.56
2022-12-10T05:26:34.334Z,158910.41
2022-12-10T05:29:38.436Z,158913.03
2022-12-10T05:32:42.524Z,158914.31
2022-12-10T05:36:01.053Z,158919.53
2022-12-10T05:39:04.975Z,158898.69
2022-12-10T05:42:09.015Z,158900.00
2022-12-10T05:45:12.984Z,158898.69
2022-12-10T05:48:17.686Z,158915.63
2022-12-10T05:51:24.698Z,158883.09
2022-12-10T05:54:28.861Z,158855.75
2022-12-10T05:57:32.950Z,158853.13
2022-12-10T06:00:40.287Z,158840.09
2022-12-10T06:03:45.226Z,158858.34
2022-12-10T06:06:50.779Z,158860.94
2022-12-10T06:09:54.873Z,158872.63
2022-12-10T06:12:59.038Z,158884.41
2022-12-10T06:16:08.654Z,158896.09
2022-12-10T06:19:12.650Z,158898.69
2022-12-10T06:22:16.574Z,158898.69
2022-12-10T06:25:20.777Z,158897.38
2022-12-10T06:28:25.072Z,158896.09
2022-12-10T06:31:29.432Z,158888.28
2022-12-10T06:34:34.440Z,158862.25
2022-12-10T06:37:40.673Z,158849.22
2022-12-10T06:40:44.686Z,158851.84
2022-12-10T06:43:49.758Z,158846.63
2022-12-10T06:46:53.726Z,158858.34
2022-12-10T06:49:57.873Z,158857.03
2022-12-10T06:53:02.134Z,158860.94
2022-12-10T06:56:07.733Z,158857.03
2022-12-10T06:59:11.519Z,158855.75
2022-12-10T07:02:15.758Z,158846.63
2022-12-10T07:05:19.948Z,158840.09
2022-12-10T07:08:24.371Z,158841.41
2022-12-10T07:11:28.420Z,158833.59
2022-12-10T07:14:32.720Z,158845.31
2022-12-10T07:17:37.101Z,158831.00
2022-12-10T07:20:41.563Z,158836.19
2022-12-10T07:23:45.586Z,158823.16
2022-12-10T07:26:49.349Z,158815.34
2022-12-10T07:29:53.553Z,158816.66
2022-12-10T07:32:57.883Z,158821.91
2022-12-10T07:36:10.603Z,158832.28
2022-12-10T07:39:18.359Z,158832.28
2022-12-10T07:42:22.798Z,158816.66
2022-12-10T07:45:26.842Z,158818.00
2022-12-10T07:48:31.085Z,158815.34
2022-12-10T07:51:35.208Z,158823.16
2022-12-10T07:54:39.102Z,158824.47
2022-12-10T07:57:43.244Z,158841.41
2022-12-10T08:00:47.433Z,158857.03
2022-12-10T08:03:52.491Z,158863.56
2022-12-10T08:06:56.995Z,158857.03
2022-12-10T08:10:01.256Z,158868.72
2022-12-10T08:13:06.633Z,158875.28
2022-12-10T08:16:16.924Z,158888.28
2022-12-10T08:19:23.715Z,158913.03
2022-12-10T08:22:30.137Z,158883.09
2022-12-10T08:25:38.978Z,158884.41
2022-12-10T08:28:45.098Z,158906.50
2022-12-10T08:31:48.992Z,158883.09
2022-12-10T08:34:53.109Z,158863.56
2022-12-10T08:37:57.139Z,158881.75
2022-12-10T08:41:07.681Z,158844.00
2022-12-10T08:44:12.201Z,158857.03
2022-12-10T08:47:16.077Z,158837.50
2022-12-10T08:50:19.996Z,158851.84
2022-12-10T08:53:24.509Z,158846.63
2022-12-10T08:56:28.458Z,158858.34
2022-12-10T08:59:32.211Z,158855.75
2022-12-10T09:02:36.028Z,158849.22
2022-12-10T09:05:40.130Z,158857.03
2022-12-10T09:08:45.057Z,158851.84
2022-12-10T09:11:48.975Z,158850.53
2022-12-10T09:14:53.185Z,158872.63
2022-12-10T09:17:57.507Z,158883.09
2022-12-10T09:21:09.296Z,158879.16
2022-12-10T09:24:13.218Z,158905.22
2022-12-10T09:27:17.247Z,158898.69
2022-12-10T09:30:21.206Z,158906.50
2022-12-10T09:33:26.203Z,158914.31
2022-12-10T09:36:33.673Z,158945.59
2022-12-10T09:39:38.490Z,158954.66
2022-12-10T09:42:53.808Z,158954.66
2022-12-10T09:46:24.689Z,158966.38
2022-12-10T09:49:37.355Z,158980.69
2022-12-10T09:52:44.624Z,158991.13
2022-12-10T09:55:49.881Z,158982.00
2022-12-10T09:58:53.911Z,159008.06
2022-12-10T10:02:02.787Z,159026.28
2022-12-10T10:05:11.306Z,159049.75
2022-12-10T10:08:20.371Z,159015.88
2022-12-10T10:11:29.063Z,158967.66
2022-12-10T10:14:33.167Z,158975.50
2022-12-10T10:17:38.852Z,158952.03
2022-12-10T10:20:43.596Z,158941.69
2022-12-10T10:23:48.026Z,158949.50
2022-12-10T10:27:00.756Z,158944.28
2022-12-10T10:30:08.007Z,158931.25
2022-12-10T10:33:15.426Z,158953.34
2022-12-10T10:36:24.276Z,158913.03
2022-12-10T10:39:30.614Z,158927.34
2022-12-10T10:42:45.759Z,158901.34
2022-12-10T10:45:57.723Z,158913.03
2022-12-10T10:49:34.894Z,158900.00
2022-12-10T10:52:40.162Z,158881.75
2022-12-10T10:55:44.160Z,158918.22
2022-12-10T10:59:01.618Z,158915.63
2022-12-10T11:02:42.541Z,158890.88
2022-12-10T11:05:49.303Z,158896.09
2022-12-10T11:08:59.008Z,158883.09
2022-12-10T11:12:21.790Z,158880.50
2022-12-10T11:15:25.561Z,158884.41
2022-12-10T11:18:36.854Z,158909.13
2022-12-10T11:21:41.628Z,158915.63
2022-12-10T11:24:47.836Z,158922.13
2022-12-10T11:28:04.063Z,158923.44
2022-12-10T11:31:29.266Z,158922.13
2022-12-10T11:34:54.954Z,158937.78
2022-12-10T11:38:11.994Z,158961.16
2022-12-10T11:41:29.315Z,158997.63
2022-12-10T11:45:07.008Z,158996.34
2022-12-10T11:48:21.559Z,158987.22
2022-12-10T11:51:44.089Z,158997.63
2022-12-10T11:55:14.001Z,159015.88
2022-12-10T11:58:44.113Z,159026.28
2022-12-10T12:01:47.957Z,158980.69
2022-12-10T12:05:10.645Z,158966.38
2022-12-10T12:08:25.524Z,158953.34
2022-12-10T12:11:48.497Z,158937.78
2022-12-10T12:14:57.977Z,158936.47
2022-12-10T12:18:02.173Z,158893.47
2022-12-10T12:21:11.787Z,158875.28
2022-12-10T12:24:21.929Z,158888.28
2022-12-10T12:27:47.908Z,158880.50
2022-12-10T12:31:14.247Z,158901.34
2022-12-10T12:34:27.394Z,158907.81
2022-12-10T12:37:42.423Z,158911.72
2022-12-10T12:41:27.342Z,158945.59
2022-12-10T12:45:04.252Z,158970.28
2022-12-10T12:48:20.252Z,158998.94
2022-12-10T12:51:42.792Z,159008.06
2022-12-10T12:54:47.222Z,158987.22
2022-12-10T12:57:57.156Z,158978.09
2022-12-10T13:01:19.177Z,158996.34
2022-12-10T13:04:24.490Z,158984.59
2022-12-10T13:07:33.772Z,159002.84
2022-12-10T13:11:11.991Z,159018.47
2022-12-10T13:14:29.501Z,159025.00
2022-12-10T13:17:36.780Z,159028.91
2022-12-10T13:20:51.316Z,159022.38
2022-12-10T13:24:09.125Z,159036.72
2022-12-10T13:27:14.389Z,159053.66
2022-12-10T13:30:36.443Z,159067.97
2022-12-10T13:34:02.004Z,159040.63
2022-12-10T13:37:18.220Z,159044.53
2022-12-10T13:40:51.317Z,159040.63
2022-12-10T13:44:19.042Z,159048.44
2022-12-10T13:47:42.458Z,159018.47
2022-12-10T13:51:23.157Z,159026.28
2022-12-10T13:55:00.473Z,159038.00
2022-12-10T13:58:16.550Z,159030.19
2022-12-10T14:01:38.075Z,159018.47
2022-12-10T14:05:20.712Z,159005.44
2022-12-10T14:08:29.063Z,158979.41
2022-12-10T14:12:08.533Z,158974.19
2022-12-10T14:15:24.929Z,158974.19
2022-12-10T14:18:31.146Z,159013.25
2022-12-10T14:21:37.476Z,158966.38
2022-12-10T14:24:44.148Z,158952.03
2022-12-10T14:27:51.734Z,158941.69
2022-12-10T14:30:56.218Z,158954.66
2022-12-10T14:34:07.752Z,158961.16
2022-12-10T14:37:14.635Z,158948.16
2022-12-10T14:40:24.161Z,158950.81
2022-12-10T14:43:39.639Z,158953.34
2022-12-10T14:46:44.615Z,158940.38
2022-12-10T14:49:51.057Z,158935.16
2022-12-10T14:52:54.845Z,158897.38
2022-12-10T14:56:08.255Z,158892.22
2022-12-10T14:59:20.509Z,158890.88
2022-12-10T15:02:31.955Z,158881.75
2022-12-10T15:05:36.897Z,158881.75
2022-12-10T15:08:43.727Z,158870.03
2022-12-10T15:11:54.899Z,158862.25
2022-12-10T15:15:05.465Z,158880.50
2022-12-10T15:18:17.239Z,158892.22
2022-12-10T15:21:24.485Z,158890.88
2022-12-10T15:24:42.485Z,158888.28
2022-12-10T15:28:01.247Z,158898.69
2022-12-10T15:31:26.914Z,158905.22
2022-12-10T15:34:38.296Z,158888.28
2022-12-10T15:37:46.281Z,158868.72
2022-12-10T15:40:50.096Z,158854.44
2022-12-10T15:44:06.905Z,158870.03
2022-12-10T15:47:18.389Z,158883.09
2022-12-10T15:50:22.607Z,158888.28
2022-12-10T15:53:35.243Z,158876.59
2022-12-10T15:56:39.745Z,158885.66
2022-12-10T15:59:45.774Z,158896.09
2022-12-10T16:02:55.514Z,158871.38
2022-12-10T16:05:59.454Z,158873.94
2022-12-10T16:09:03.669Z,158857.03
2022-12-10T16:12:11.960Z,158863.56
2022-12-10T16:15:28.336Z,158858.34
2022-12-10T16:18:34.525Z,158859.66
2022-12-10T16:21:38.904Z,158879.16
2022-12-10T16:24:45.693Z,158893.47
2022-12-10T16:27:49.766Z,158877.84
2022-12-10T16:30:59.841Z,158863.56
2022-12-10T16:34:03.879Z,158868.72
2022-12-10T16:37:10.801Z,158877.84
2022-12-10T16:40:16.061Z,158867.47
2022-12-10T16:43:22.702Z,158857.03
2022-12-10T16:46:27.166Z,158857.03
2022-12-10T16:49:31.504Z,158854.44
2022-12-10T16:52:35.878Z,158853.13
2022-12-10T16:55:39.959Z,158854.44
2022-12-10T16:58:45.343Z,158845.31
2022-12-10T17:01:49.656Z,158838.81
2022-12-10T17:04:53.837Z,158838.81
2022-12-10T17:07:58.901Z,158844.00
2022-12-10T17:11:33.909Z,158854.44
2022-12-10T17:14:47.000Z,158870.03
2022-12-10T17:17:51.170Z,158849.22
2022-12-10T17:20:55.090Z,158841.41
2022-12-10T17:23:59.231Z,158838.81
2022-12-10T17:27:38.814Z,158847.91
2022-12-10T17:30:43.791Z,158825.78
2022-12-10T17:33:51.832Z,158807.53
2022-12-10T17:36:56.529Z,158827.13
2022-12-10T17:40:00.546Z,158810.19
2022-12-10T17:43:04.539Z,158791.94
2022-12-10T17:46:11.307Z,158793.25
2022-12-10T17:49:16.624Z,158773.69
2022-12-10T17:52:20.556Z,158777.59
2022-12-10T17:55:25.780Z,158768.53
2022-12-10T17:58:29.923Z,158769.78
2022-12-10T18:01:34.602Z,158775.00
2022-12-10T18:04:39.470Z,158785.44
2022-12-10T18:07:43.789Z,158797.16
2022-12-10T18:10:47.802Z,158778.91
2022-12-10T18:13:51.977Z,158784.13
2022-12-10T18:16:56.152Z,158786.72
2022-12-10T18:20:00.198Z,158785.44
2022-12-10T18:23:06.055Z,158788.03
2022-12-10T18:26:15.627Z,158794.53
2022-12-10T18:29:19.352Z,158807.53
2022-12-10T18:32:23.505Z,158802.38
2022-12-10T18:35:30.422Z,158794.53
2022-12-10T18:38:34.579Z,158806.28
2022-12-10T18:41:38.505Z,158798.44
2022-12-10T18:44:42.380Z,158801.06
2022-12-10T18:47:46.820Z,158803.66
2022-12-10T18:50:54.944Z,158803.66
2022-12-10T18:53:59.112Z,158788.03
2022-12-10T18:57:32.268Z,158789.34
2022-12-10T19:00:28.629Z,158769.78
2022-12-10T19:03:33.023Z,158756.81
2022-12-10T19:06:38.441Z,158762.00
2022-12-10T19:09:42.888Z,158752.88
2022-12-10T19:12:46.914Z,158754.19
2022-12-10T19:15:52.856Z,158741.16
2022-12-10T19:19:01.789Z,158733.34
2022-12-10T19:22:05.773Z,158733.34
2022-12-10T19:25:10.707Z,158751.59
2022-12-10T19:28:19.360Z,158745.06
2022-12-10T19:31:23.868Z,158756.81
2022-12-10T19:34:28.601Z,158763.31
2022-12-10T19:37:32.925Z,158759.41
2022-12-10T19:40:37.237Z,158772.44
2022-12-10T19:43:42.153Z,158759.41
2022-12-10T19:46:46.420Z,158747.69
2022-12-10T19:49:50.311Z,158743.78
2022-12-10T19:52:54.477Z,158724.25
2022-12-10T19:55:58.588Z,158722.97
2022-12-10T19:59:11.247Z,158729.44
2022-12-10T20:02:18.359Z,158724.25
2022-12-10T20:05:23.290Z,158726.88
2022-12-10T20:08:27.545Z,158732.09
2022-12-10T20:11:31.771Z,158734.69
2022-12-10T20:14:36.409Z,158725.56
2022-12-10T20:17:41.164Z,158711.28
2022-12-10T20:20:45.356Z,158722.97
2022-12-10T20:23:50.402Z,158722.97
2022-12-10T20:26:54.924Z,158729.44
2022-12-10T20:29:58.690Z,158734.69
2022-12-10T20:33:22.938Z,158746.38
2022-12-10T20:36:27.616Z,158750.28
2022-12-10T20:39:34.030Z,158750.28
2022-12-10T20:42:37.836Z,158733.34
2022-12-10T20:45:42.630Z,158726.88
2022-12-10T20:48:47.461Z,158729.44
2022-12-10T20:51:52.207Z,158721.66
2022-12-10T20:54:55.946Z,158702.16
2022-12-10T20:57:59.832Z,158686.59
2022-12-10T21:01:04.023Z,158682.69
2022-12-10T21:04:08.440Z,158661.88
2022-12-10T21:07:14.995Z,158657.97
2022-12-10T21:10:39.032Z,158681.38
2022-12-10T21:13:43.650Z,158686.59
2022-12-10T21:16:48.105Z,158682.69
2022-12-10T21:19:52.483Z,158698.25
2022-12-10T21:22:57.000Z,158706.03
2022-12-10T21:26:02.709Z,158691.72
2022-12-10T21:29:06.940Z,158682.69
2022-12-10T21:32:10.991Z,158678.75
2022-12-10T21:35:15.684Z,158691.72
2022-12-10T21:38:20.097Z,158677.47
2022-12-10T21:41:44.700Z,158676.16
2022-12-10T21:44:53.726Z,158677.47
2022-12-10T21:48:01.130Z,158676.16
2022-12-10T21:51:04.846Z,158667.03
2022-12-10T21:54:09.138Z,158651.44
2022-12-10T21:57:13.519Z,158620.22
2022-12-10T22:00:18.477Z,158596.78
2022-12-10T22:03:22.283Z,158572.06
2022-12-10T22:06:28.677Z,158578.59
2022-12-10T22:09:32.981Z,158570.78
2022-12-10T22:12:36.881Z,158552.56
2022-12-10T22:15:41.604Z,158544.75
2022-12-10T22:18:45.642Z,158510.88
2022-12-10T22:21:49.757Z,158525.22
2022-12-10T22:24:54.044Z,158535.66
2022-12-10T22:27:58.082Z,158536.97
2022-12-10T22:31:06.876Z,158543.44
2022-12-10T22:34:11.073Z,158538.28
2022-12-10T22:37:15.140Z,158540.84
2022-12-10T22:40:19.528Z,158520.00
2022-12-10T22:46:48.014Z,158526.53
2022-12-10T22:49:51.924Z,158521.31
2022-12-10T22:52:55.657Z,158517.41
2022-12-10T22:56:01.266Z,158504.41
2022-12-10T22:59:05.492Z,158508.31
2022-12-10T23:02:11.640Z,158530.44
2022-12-10T23:05:16.215Z,158497.88
2022-12-10T23:08:21.041Z,158512.19
2022-12-10T23:11:25.209Z,158504.41
2022-12-10T23:14:29.420Z,158488.81
2022-12-10T23:17:33.749Z,158508.31
2022-12-10T23:20:38.435Z,158497.88
2022-12-10T23:23:42.664Z,158470.56
2022-12-10T23:26:47.020Z,158474.47
2022-12-10T23:29:50.775Z,158492.69
2022-12-10T23:32:54.524Z,158455.00
2022-12-10T23:35:58.593Z,158417.28
2022-12-10T23:39:02.806Z,158444.56
2022-12-10T23:42:06.766Z,158455.00
2022-12-10T23:45:14.719Z,158455.00
2022-12-10T23:48:18.949Z,158456.25
2022-12-10T23:51:23.266Z,158470.56
2022-12-10T23:54:27.719Z,158500.50
2022-12-10T23:57:31.902Z,158520.00
